createdAt,value
2022-08-05T00:01:20.828Z,19.01
2022-08-05T00:04:14.288Z,18.95
2022-08-05T00:07:00.572Z,18.91
2022-08-05T00:10:06.370Z,18.86
2022-08-05T00:12:56.343Z,18.82
2022-08-05T00:15:57.993Z,18.77
2022-08-05T00:18:46.384Z,18.75
2022-08-05T00:21:35.989Z,18.71
2022-08-05T00:24:24.774Z,18.66
2022-08-05T00:27:20.056Z,18.56
2022-08-05T00:30:14.749Z,18.52
2022-08-05T00:33:00.892Z,18.48
2022-08-05T00:35:48.022Z,18.44
2022-08-05T00:38:53.562Z,18.39
2022-08-05T00:44:30.575Z,18.30
2022-08-05T00:47:17.816Z,18.29
2022-08-05T00:50:05.171Z,18.27
2022-08-05T00:55:47.092Z,18.20
2022-08-05T00:58:32.900Z,18.15
2022-08-05T01:01:41.966Z,18.07
2022-08-05T01:04:26.847Z,18.01
2022-08-05T01:07:17.874Z,17.92
2022-08-05T01:10:09.127Z,17.91
2022-08-05T01:13:22.188Z,17.92
2022-08-05T01:16:26.336Z,17.90
2022-08-05T01:22:10.972Z,17.80
2022-08-05T01:28:39.292Z,17.73
2022-08-05T01:31:44.885Z,17.67
2022-08-05T01:34:37.155Z,17.59
2022-08-05T01:37:36.558Z,17.53
2022-08-05T01:43:50.529Z,17.45
2022-08-05T01:46:42.647Z,17.42
2022-08-05T01:49:59.985Z,17.39
2022-08-05T01:52:43.304Z,17.36
2022-08-05T01:55:36.325Z,17.32
2022-08-05T01:58:29.560Z,17.28
2022-08-05T02:01:29.307Z,17.25
2022-08-05T02:04:28.784Z,17.22
2022-08-05T02:07:22.043Z,17.17
2022-08-05T02:10:09.709Z,17.14
2022-08-05T02:13:16.325Z,17.08
2022-08-05T02:19:12.329Z,16.98
2022-08-05T02:25:02.157Z,16.91
2022-08-05T02:27:59.810Z,16.89
2022-08-05T02:39:52.743Z,16.73
2022-08-05T02:42:39.832Z,16.69
2022-08-05T02:45:28.533Z,16.67
2022-08-05T02:48:43.460Z,16.61
2022-08-05T02:58:10.734Z,16.55
2022-08-05T03:00:46.111Z,16.51
2022-08-05T03:03:34.047Z,16.46
2022-08-05T03:06:57.089Z,16.39
2022-08-05T03:09:51.748Z,16.35
2022-08-05T03:12:39.817Z,16.32
2022-08-05T03:21:33.206Z,16.19
2022-08-05T03:24:30.894Z,16.17
2022-08-05T03:27:17.098Z,16.15
2022-08-05T03:32:52.031Z,16.11
2022-08-05T03:38:37.474Z,16.08
2022-08-05T03:47:07.818Z,16.03
2022-08-05T03:49:53.661Z,16.03
2022-08-05T03:55:49.852Z,15.99
2022-08-05T03:56:30.693Z,16.00
2022-08-05T03:59:47.065Z,15.96
2022-08-05T04:02:52.335Z,15.96
2022-08-05T04:05:45.561Z,15.96
2022-08-05T04:08:36.774Z,15.95
2022-08-05T04:11:23.369Z,15.94
2022-08-05T04:14:30.421Z,16.06
2022-08-05T04:17:17.931Z,16.31
2022-08-05T04:20:05.885Z,16.72
2022-08-05T04:22:57.437Z,17.19
2022-08-05T04:26:00.505Z,17.66
2022-08-05T04:28:51.336Z,18.18
2022-08-05T04:31:38.757Z,18.65
2022-08-05T04:34:32.802Z,19.14
2022-08-05T04:37:20.534Z,19.60
2022-08-05T04:40:10.593Z,20.06
2022-08-05T04:42:56.613Z,20.49
2022-08-05T04:45:48.991Z,20.86
2022-08-05T04:48:41.079Z,21.15
2022-08-05T04:51:30.568Z,21.34
2022-08-05T04:54:20.560Z,21.68
2022-08-05T04:57:08.605Z,22.09
2022-08-05T04:59:54.852Z,22.49
2022-08-05T05:02:41.838Z,22.92
2022-08-05T05:05:29.755Z,23.36
2022-08-05T05:08:29.916Z,23.83
2022-08-05T05:11:16.659Z,24.43
2022-08-05T05:14:03.705Z,24.91
2022-08-05T05:16:40.979Z,25.33
2022-08-05T05:35:07.108Z,26.07
2022-08-05T05:38:00.039Z,25.59
2022-08-05T05:40:49.722Z,24.90
2022-08-05T05:43:56.953Z,24.42
2022-08-05T05:46:43.668Z,23.99
2022-08-05T05:49:30.650Z,23.64
2022-08-05T05:52:28.487Z,23.67
2022-08-05T05:55:19.147Z,24.23
2022-08-05T05:58:05.201Z,24.93
2022-08-05T06:00:51.021Z,25.66
2022-08-05T06:03:54.103Z,26.32
2022-08-05T06:09:25.926Z,27.06
2022-08-05T06:12:28.174Z,27.76
2022-08-05T06:15:23.992Z,28.29
2022-08-05T06:18:09.915Z,28.37
2022-08-05T06:20:55.337Z,28.67
2022-08-05T06:23:44.227Z,28.81
2022-08-05T06:26:31.955Z,29.14
2022-08-05T06:29:25.083Z,29.85
2022-08-05T06:32:29.187Z,30.18
2022-08-05T06:35:21.836Z,30.28
2022-08-05T06:38:35.834Z,30.17
2022-08-05T06:41:22.317Z,30.19
2022-08-05T06:44:07.654Z,30.72
2022-08-05T06:46:54.385Z,31.32
2022-08-05T06:50:00.282Z,31.52
2022-08-05T06:52:58.635Z,31.83
2022-08-05T06:55:49.589Z,31.83
2022-08-05T06:58:36.699Z,31.43
2022-08-05T07:01:23.031Z,31.05
2022-08-05T07:04:13.912Z,30.64
2022-08-05T07:06:59.879Z,30.14
2022-08-05T07:17:59.256Z,28.93
2022-08-05T07:23:00.985Z,28.14
2022-08-05T07:25:54.930Z,27.91
2022-08-05T07:28:46.414Z,27.77
2022-08-05T07:31:40.738Z,27.63
2022-08-05T07:34:42.127Z,27.47
2022-08-05T07:37:29.084Z,27.41
2022-08-05T07:40:26.727Z,27.36
2022-08-05T07:43:20.618Z,27.37
2022-08-05T07:46:07.227Z,27.34
2022-08-05T07:49:11.025Z,27.26
2022-08-05T07:51:57.071Z,27.18
2022-08-05T07:54:47.652Z,27.13
2022-08-05T07:57:52.197Z,27.10
2022-08-05T08:00:41.823Z,27.11
2022-08-05T08:03:44.564Z,27.03
2022-08-05T08:06:32.687Z,27.02
2022-08-05T08:09:19.766Z,27.08
2022-08-05T08:12:14.666Z,27.15
2022-08-05T08:15:09.714Z,27.29
2022-08-05T08:18:01.806Z,27.38
2022-08-05T08:21:03.180Z,27.44
2022-08-05T08:24:02.727Z,27.53
2022-08-05T08:26:50.955Z,27.75
2022-08-05T08:30:05.171Z,27.93
2022-08-05T08:32:44.311Z,28.10
2022-08-05T08:35:34.822Z,28.25
2022-08-05T08:38:32.323Z,28.38
2022-08-05T08:41:25.916Z,28.49
2022-08-05T08:45:22.360Z,28.63
2022-08-05T08:48:05.406Z,28.80
2022-08-05T08:51:03.372Z,28.97
2022-08-05T08:53:45.108Z,29.22
2022-08-05T08:56:33.002Z,29.47
2022-08-05T08:59:21.023Z,29.70
2022-08-05T09:02:08.625Z,29.92
2022-08-05T09:07:40.037Z,30.35
2022-08-05T09:10:46.941Z,30.50
2022-08-05T09:14:00.970Z,30.64
2022-08-05T09:16:40.540Z,30.76
2022-08-05T09:19:36.441Z,30.88
2022-08-05T09:22:32.151Z,30.96
2022-08-05T09:25:23.967Z,31.07
2022-08-05T09:28:47.960Z,31.17
2022-08-05T09:32:41.142Z,31.27
2022-08-05T09:38:12.125Z,31.40
2022-08-05T09:40:33.873Z,31.47
2022-08-05T09:52:58.659Z,31.52
2022-08-05T09:55:59.242Z,31.57
2022-08-05T10:05:09.864Z,31.82
2022-08-05T10:11:06.359Z,32.13
2022-08-05T10:13:55.918Z,32.24
2022-08-05T10:16:52.479Z,32.36
2022-08-05T10:20:03.662Z,32.41
2022-08-05T10:22:50.915Z,32.44
2022-08-05T10:25:36.937Z,32.61
2022-08-05T10:28:29.585Z,32.81
2022-08-05T10:32:48.072Z,33.09
2022-08-05T10:34:25.916Z,33.17
2022-08-05T10:37:16.401Z,33.07
2022-08-05T10:40:17.960Z,33.05
2022-08-05T10:43:36.565Z,33.38
2022-08-05T10:46:23.973Z,33.69
2022-08-05T10:49:10.482Z,33.89
2022-08-05T10:52:05.276Z,33.90
2022-08-05T10:55:07.884Z,34.08
2022-08-05T10:58:11.377Z,34.40
2022-08-05T11:01:03.089Z,34.58
2022-08-05T11:04:17.630Z,34.57
2022-08-05T11:07:08.928Z,34.64
2022-08-05T11:10:04.057Z,34.83
2022-08-05T11:12:57.632Z,34.85
2022-08-05T11:16:00.596Z,34.69
2022-08-05T11:18:47.271Z,34.58
2022-08-05T11:21:48.899Z,34.11
2022-08-05T11:24:34.996Z,33.90
2022-08-05T11:27:37.077Z,33.50
2022-08-05T11:30:55.587Z,33.31
2022-08-05T11:33:48.191Z,33.10
2022-08-05T11:36:57.105Z,33.14
2022-08-05T11:39:55.488Z,33.05
2022-08-05T11:42:48.214Z,33.15
2022-08-05T11:46:15.975Z,33.20
2022-08-05T11:48:53.074Z,33.39
2022-08-05T11:51:44.448Z,33.53
2022-08-05T11:54:41.526Z,34.04
2022-08-05T11:58:08.237Z,34.54
2022-08-05T12:00:38.133Z,34.85
2022-08-05T12:03:31.564Z,34.75
2022-08-05T12:06:20.622Z,34.19
2022-08-05T12:09:06.748Z,33.91
2022-08-05T12:11:52.395Z,33.84
2022-08-05T12:14:43.368Z,33.88
2022-08-05T12:18:03.311Z,33.81
2022-08-05T12:20:41.416Z,33.69
2022-08-05T12:23:27.183Z,33.54
2022-08-05T12:26:12.926Z,33.44
2022-08-05T12:28:58.493Z,33.64
2022-08-05T12:31:54.725Z,33.94
2022-08-05T12:34:40.683Z,34.13
2022-08-05T12:37:29.967Z,34.24
2022-08-05T12:40:26.457Z,34.14
2022-08-05T12:43:20.666Z,33.98
2022-08-05T12:46:06.646Z,34.28
2022-08-05T12:49:12.905Z,34.54
2022-08-05T12:52:12.421Z,34.48
2022-08-05T12:55:22.371Z,34.17
2022-08-05T12:58:38.693Z,34.04
2022-08-05T13:02:04.164Z,33.85
2022-08-05T13:04:21.324Z,33.71
2022-08-05T13:07:16.185Z,33.63
2022-08-05T13:10:04.653Z,33.65
2022-08-05T13:12:57.100Z,33.89
2022-08-05T13:15:50.533Z,34.04
2022-08-05T13:18:39.982Z,33.95
2022-08-05T13:21:27.855Z,33.90
2022-08-05T13:24:14.322Z,33.77
2022-08-05T13:27:38.075Z,33.84
2022-08-05T13:30:33.619Z,34.01
2022-08-05T13:34:22.941Z,34.22
2022-08-05T13:36:27.305Z,34.58
2022-08-05T13:39:24.305Z,34.65
2022-08-05T13:42:24.117Z,34.64
2022-08-05T13:45:11.069Z,34.58
2022-08-05T13:48:09.661Z,34.65
2022-08-05T13:51:09.693Z,34.60
2022-08-05T13:53:56.460Z,34.50
2022-08-05T13:56:51.033Z,34.51
2022-08-05T13:59:57.209Z,34.59
2022-08-05T14:02:44.824Z,34.52
2022-08-05T14:06:04.977Z,34.73
2022-08-05T14:08:36.420Z,35.34
2022-08-05T14:11:22.298Z,35.92
2022-08-05T14:14:08.638Z,36.24
2022-08-05T14:16:55.318Z,36.02
2022-08-05T14:19:54.661Z,35.79
2022-08-05T14:22:50.295Z,35.67
2022-08-05T14:25:35.945Z,36.06
2022-08-05T14:28:30.921Z,35.98
2022-08-05T14:31:17.365Z,35.59
2022-08-05T14:34:23.705Z,35.31
2022-08-05T14:37:09.322Z,35.16
2022-08-05T14:39:59.176Z,34.96
2022-08-05T14:42:44.407Z,35.23
2022-08-05T14:45:29.761Z,35.79
2022-08-05T14:48:32.697Z,36.02
2022-08-05T14:51:20.123Z,36.24
2022-08-05T14:54:28.967Z,36.75
2022-08-05T14:57:13.689Z,37.15
2022-08-05T14:59:59.157Z,37.25
2022-08-05T15:02:45.608Z,37.36
2022-08-05T15:06:12.934Z,37.17
2022-08-05T15:08:59.868Z,36.52
2022-08-05T15:11:53.149Z,35.91
2022-08-05T15:14:48.329Z,35.41
2022-08-05T15:17:47.095Z,35.22
2022-08-05T15:20:34.445Z,35.27
2022-08-05T15:23:20.284Z,35.21
2022-08-05T15:26:05.908Z,35.21
2022-08-05T15:28:52.870Z,35.34
2022-08-05T15:31:39.318Z,35.21
2022-08-05T15:34:31.915Z,35.06
2022-08-05T15:38:08.363Z,35.03
2022-08-05T15:41:02.823Z,35.44
2022-08-05T15:43:31.323Z,35.21
2022-08-05T15:46:31.927Z,34.91
2022-08-05T15:49:26.257Z,34.80
2022-08-05T15:52:51.978Z,34.69
2022-08-05T15:56:02.062Z,34.62
2022-08-05T15:58:35.752Z,34.19
2022-08-05T16:01:29.601Z,34.12
2022-08-05T16:04:25.980Z,33.91
2022-08-05T16:07:11.811Z,33.95
2022-08-05T16:09:58.479Z,33.89
2022-08-05T16:12:43.886Z,33.95
2022-08-05T16:15:32.387Z,34.01
2022-08-05T16:18:19.641Z,34.21
2022-08-05T16:21:05.261Z,34.20
2022-08-05T16:23:54.583Z,34.37
2022-08-05T16:26:55.999Z,34.57
2022-08-05T16:29:44.159Z,34.43
2022-08-05T16:32:32.913Z,34.29
2022-08-05T16:35:18.904Z,34.25
2022-08-05T16:38:23.778Z,34.26
2022-08-05T16:42:12.511Z,34.54
2022-08-05T16:44:17.578Z,34.93
2022-08-05T16:47:03.843Z,35.25
2022-08-05T16:49:50.058Z,35.37
2022-08-05T16:52:38.888Z,35.38
2022-08-05T16:55:32.446Z,34.80
2022-08-05T16:58:32.939Z,34.82
2022-08-05T17:01:19.242Z,34.73
2022-08-05T17:04:05.109Z,34.49
2022-08-05T17:06:53.007Z,34.32
2022-08-05T17:09:57.563Z,34.32
2022-08-05T17:12:51.766Z,34.41
2022-08-05T17:15:48.856Z,34.27
2022-08-05T17:18:38.429Z,34.30
2022-08-05T17:21:24.685Z,34.27
2022-08-05T17:24:28.183Z,34.21
2022-08-05T17:27:16.210Z,34.04
2022-08-05T17:30:04.395Z,33.86
2022-08-05T17:32:52.762Z,33.68
2022-08-05T17:36:09.498Z,33.63
2022-08-05T17:38:43.778Z,33.45
2022-08-05T17:42:17.520Z,33.35
2022-08-05T17:44:34.889Z,33.25
2022-08-05T17:47:22.458Z,33.13
2022-08-05T17:50:10.941Z,33.03
2022-08-05T17:53:05.401Z,32.93
2022-08-05T17:55:50.910Z,32.74
2022-08-05T17:58:37.738Z,32.57
2022-08-05T18:01:23.862Z,32.40
2022-08-05T18:04:11.822Z,32.23
2022-08-05T18:16:46.768Z,31.77
2022-08-05T18:28:48.397Z,31.32
2022-08-05T18:37:34.548Z,30.99
2022-08-05T18:40:34.094Z,30.83
2022-08-05T18:43:38.374Z,30.73
2022-08-05T18:46:29.364Z,30.56
2022-08-05T18:49:44.660Z,30.45
2022-08-05T18:52:51.071Z,30.32
2022-08-05T18:55:37.974Z,30.23
2022-08-05T18:58:28.877Z,30.07
2022-08-05T19:01:18.008Z,30.01
2022-08-05T19:04:24.019Z,29.97
2022-08-05T19:07:11.640Z,29.88
2022-08-05T19:09:58.337Z,29.80
2022-08-05T19:12:46.081Z,29.76
2022-08-05T19:15:57.870Z,29.67
2022-08-05T19:18:24.465Z,29.61
2022-08-05T19:21:10.339Z,29.55
2022-08-05T19:24:05.321Z,29.41
2022-08-05T19:26:55.819Z,29.29
2022-08-05T19:29:43.331Z,29.21
2022-08-05T19:32:30.251Z,29.09
2022-08-05T19:35:16.193Z,28.99
2022-08-05T19:38:05.901Z,28.91
2022-08-05T19:40:52.489Z,28.84
2022-08-05T19:44:05.699Z,28.76
2022-08-05T19:46:40.031Z,28.71
2022-08-05T19:49:28.982Z,28.64
2022-08-05T19:52:40.751Z,28.59
2022-08-05T19:56:13.643Z,28.49
2022-08-05T19:58:32.965Z,28.44
2022-08-05T20:01:39.349Z,28.34
2022-08-05T20:04:25.522Z,28.24
2022-08-05T20:13:11.186Z,28.00
2022-08-05T20:15:57.512Z,27.88
2022-08-05T20:21:46.462Z,27.76
2022-08-05T20:27:26.431Z,27.63
2022-08-05T20:30:13.285Z,27.57
2022-08-05T20:32:59.843Z,27.52
2022-08-05T20:35:45.951Z,27.51
2022-08-05T20:38:58.013Z,27.47
2022-08-05T20:41:45.159Z,27.44
2022-08-05T20:44:37.750Z,27.42
2022-08-05T20:47:32.356Z,27.46
2022-08-05T20:50:18.725Z,27.47
2022-08-05T20:53:05.173Z,27.47
2022-08-05T20:56:08.791Z,27.40
2022-08-05T20:58:55.633Z,27.34
2022-08-05T21:01:46.469Z,27.32
2022-08-05T21:04:33.334Z,27.26
2022-08-05T21:07:19.273Z,27.17
2022-08-05T21:10:09.616Z,27.12
2022-08-05T21:13:11.274Z,27.03
2022-08-05T21:16:03.583Z,26.88
2022-08-05T21:18:50.138Z,26.74
2022-08-05T21:21:39.352Z,26.58
2022-08-05T21:24:31.102Z,26.47
2022-08-05T21:27:16.795Z,26.37
2022-08-05T21:30:07.252Z,26.30
2022-08-05T21:32:54.874Z,26.17
2022-08-05T21:36:06.512Z,26.10
2022-08-05T21:41:52.865Z,25.85
2022-08-05T21:47:56.124Z,25.73
2022-08-05T21:50:54.067Z,25.65
2022-08-05T21:53:40.645Z,25.58
2022-08-05T21:56:26.729Z,25.50
2022-08-05T21:59:24.409Z,25.43
2022-08-05T22:02:12.369Z,25.27
2022-08-05T22:05:00.174Z,25.21
2022-08-05T22:07:58.990Z,25.11
2022-08-05T22:10:48.584Z,25.00
2022-08-05T22:14:19.710Z,24.83
2022-08-05T22:16:51.183Z,24.74
2022-08-05T22:22:28.842Z,24.61
2022-08-05T22:26:10.375Z,24.50
2022-08-05T22:28:40.252Z,24.39
2022-08-05T22:31:30.306Z,24.25
2022-08-05T22:34:25.449Z,24.15
2022-08-05T22:37:15.212Z,24.01
2022-08-05T22:40:01.419Z,23.87
2022-08-05T22:42:57.858Z,23.78
2022-08-05T22:45:44.598Z,23.70
2022-08-05T22:48:31.762Z,23.58
2022-08-05T22:51:23.233Z,23.49
2022-08-05T22:54:24.884Z,23.39
2022-08-05T22:57:13.681Z,23.22
2022-08-05T23:00:01.269Z,23.10
2022-08-05T23:02:52.350Z,23.03
2022-08-05T23:08:34.874Z,22.86
2022-08-05T23:11:22.050Z,22.73
2022-08-05T23:14:08.384Z,22.55
2022-08-05T23:17:15.454Z,22.38
2022-08-05T23:20:17.488Z,22.19
2022-08-05T23:23:08.650Z,22.10
2022-08-05T23:25:55.593Z,22.00
2022-08-05T23:28:43.179Z,22.00
2022-08-05T23:31:28.794Z,21.94
2022-08-05T23:34:15.868Z,21.89
2022-08-05T23:37:11.402Z,21.95
2022-08-05T23:39:56.694Z,22.01
2022-08-05T23:42:47.305Z,22.00
2022-08-05T23:45:33.536Z,21.93
2022-08-05T23:48:19.731Z,21.87
2022-08-05T23:51:05.250Z,21.84
2022-08-05T23:53:50.839Z,21.86
2022-08-05T23:56:46.418Z,21.80
